Time;durP1;ratioP1;P1;durP2;ratioP2;P2;SDS_P1;SDS_P2;PMS_P1;PMS_P2;Temp;Humidity;BMP_temperature;BMP_pressure;BME280_temperature;BME280_humidity;BME280_pressure;Samples;Min_cycle;Max_cycle;Signal;HPM_P1;HPM_P2
2021/07/08 00:01:39;;;;;;;4.63;3.55;;;;;;;;;;5074522;28;20107;-60
2021/07/08 00:04:05;;;;;;;5.80;4.47;;;;;;;;;;5074607;28;20475;-60
2021/07/08 00:06:31;;;;;;;5.15;4.00;;;;;;;;;;5063907;28;20025;-59
2021/07/08 00:08:58;;;;;;;6.60;3.95;;;;;;;;;;5054536;28;20024;-59
2021/07/08 00:11:24;;;;;;;5.70;3.85;;;;;;;;;;5054605;28;20100;-59
2021/07/08 00:13:50;;;;;;;5.57;3.80;;;;;;;;;;5054419;28;20024;-60
2021/07/08 00:16:17;;;;;;;6.57;3.80;;;;;;;;;;5054356;28;20029;-60
2021/07/08 00:18:43;;;;;;;6.72;3.97;;;;;;;;;;5070322;28;20389;-60
2021/07/08 00:21:10;;;;;;;5.57;3.75;;;;;;;;;;5070602;28;20055;-60
2021/07/08 00:23:36;;;;;;;7.00;3.53;;;;;;;;;;5074348;28;20059;-60
2021/07/08 00:26:02;;;;;;;7.18;4.13;;;;;;;;;;5056205;28;20494;-60
2021/07/08 00:28:28;;;;;;;6.82;3.85;;;;;;;;;;5074371;28;20093;-60
2021/07/08 00:30:54;;;;;;;5.90;3.70;;;;;;;;;;5074356;28;20028;-60
2021/07/08 00:33:21;;;;;;;6.30;3.40;;;;;;;;;;5074072;28;20259;-63
2021/07/08 00:35:47;;;;;;;6.97;4.32;;;;;;;;;;5073912;28;20016;-60
2021/07/08 00:38:13;;;;;;;6.13;3.90;;;;;;;;;;5074034;28;20025;-60
2021/07/08 00:40:39;;;;;;;8.13;4.18;;;;;;;;;;5073720;28;20025;-60
2021/07/08 00:43:06;;;;;;;7.78;3.70;;;;;;;;;;5074123;28;20013;-62
2021/07/08 00:45:32;;;;;;;8.70;3.72;;;;;;;;;;5074999;28;20028;-60
2021/07/08 00:47:59;;;;;;;7.45;3.42;;;;;;;;;;5075835;28;20021;-60
2021/07/08 00:50:32;;;;;;;7.13;4.32;;;;;;;;;;5075032;28;20476;-61
2021/07/08 00:52:58;;;;;;;6.57;4.00;;;;;;;;;;5073843;28;20406;-60
2021/07/08 00:55:24;;;;;;;7.43;4.53;;;;;;;;;;5073688;28;20690;-60
2021/07/08 00:57:54;;;;;;;6.28;3.92;;;;;;;;;;5073660;28;20077;-61
2021/07/08 01:00:22;;;;;;;6.75;4.13;;;;;;;;;;5073656;28;20388;-60
2021/07/08 01:02:49;;;;;;;7.55;3.92;;;;;;;;;;5073413;28;20028;-60
2021/07/08 01:05:16;;;;;;;6.05;3.63;;;;;;;;;;5073458;28;20028;-62
2021/07/08 01:07:43;;;;;;;6.47;3.90;;;;;;;;;;5053535;28;20028;-60
2021/07/08 01:10:09;;;;;;;6.97;3.50;;;;;;;;;;5073901;28;20031;-60
2021/07/08 01:12:35;;;;;;;9.30;4.65;;;;;;;;;;5073424;28;20151;-60
2021/07/08 01:15:02;;;;;;;8.52;4.28;;;;;;;;;;5073283;28;20039;-60
2021/07/08 01:17:28;;;;;;;8.80;3.97;;;;;;;;;;5073063;28;20056;-61
2021/07/08 01:19:54;;;;;;;8.30;4.30;;;;;;;;;;5063005;28;20483;-61
2021/07/08 01:22:20;;;;;;;7.95;3.90;;;;;;;;;;5053048;28;20550;-60
2021/07/08 01:24:47;;;;;;;6.63;4.13;;;;;;;;;;5053222;28;20476;-60
2021/07/08 01:27:14;;;;;;;9.15;4.53;;;;;;;;;;5072405;28;20024;-60
2021/07/08 01:29:40;;;;;;;8.35;4.25;;;;;;;;;;5073009;28;20019;-60
2021/07/08 01:32:06;;;;;;;9.55;4.40;;;;;;;;;;5072802;28;20059;-60
2021/07/08 01:34:32;;;;;;;8.30;4.53;;;;;;;;;;5073001;28;20036;-60
2021/07/08 01:36:58;;;;;;;8.00;4.65;;;;;;;;;;5072812;28;20032;-60
2021/07/08 01:39:25;;;;;;;6.57;4.07;;;;;;;;;;5072704;28;20032;-60
2021/07/08 01:41:51;;;;;;;10.02;4.65;;;;;;;;;;5072804;28;20028;-60
2021/07/08 01:44:17;;;;;;;10.10;4.25;;;;;;;;;;5090343;28;20122;-60
2021/07/08 01:46:43;;;;;;;9.32;4.20;;;;;;;;;;5093250;28;20019;-60
2021/07/08 01:49:10;;;;;;;9.90;4.45;;;;;;;;;;5092992;28;20034;-60
2021/07/08 01:51:36;;;;;;;7.15;4.57;;;;;;;;;;5092578;28;20028;-63
2021/07/08 01:54:03;;;;;;;9.32;4.13;;;;;;;;;;5092595;28;20028;-60
2021/07/08 01:56:29;;;;;;;7.72;4.43;;;;;;;;;;5074836;28;20055;-60
2021/07/08 01:58:56;;;;;;;7.32;3.95;;;;;;;;;;5091520;28;20023;-60
2021/07/08 02:01:22;;;;;;;7.68;4.47;;;;;;;;;;5072540;28;20029;-60
2021/07/08 02:03:49;;;;;;;8.50;4.28;;;;;;;;;;5072550;28;20095;-60
2021/07/08 02:06:15;;;;;;;9.20;4.85;;;;;;;;;;5064294;28;20049;-60
2021/07/08 02:08:41;;;;;;;7.30;4.80;;;;;;;;;;5052415;28;20478;-60
2021/07/08 02:11:08;;;;;;;9.07;4.15;;;;;;;;;;5034580;28;20021;-60
2021/07/08 02:13:35;;;;;;;8.82;4.75;;;;;;;;;;5052410;28;20021;-60
2021/07/08 02:16:05;;;;;;;8.55;4.68;;;;;;;;;;5053887;28;20491;-60
2021/07/08 02:18:31;;;;;;;9.25;4.60;;;;;;;;;;5072364;28;20104;-60
2021/07/08 02:20:57;;;;;;;13.57;5.15;;;;;;;;;;5053454;28;20060;-60
2021/07/08 02:23:23;;;;;;;10.38;4.32;;;;;;;;;;5052044;28;20094;-60
2021/07/08 02:25:50;;;;;;;10.98;5.55;;;;;;;;;;5052191;28;20028;-60
2021/07/08 02:28:16;;;;;;;9.70;5.43;;;;;;;;;;5052196;28;20025;-60
2021/07/08 02:30:42;;;;;;;11.27;4.82;;;;;;;;;;5052124;28;20025;-60
2021/07/08 02:33:08;;;;;;;10.52;5.22;;;;;;;;;;5054841;28;20107;-60
2021/07/08 02:35:35;;;;;;;9.43;5.40;;;;;;;;;;5072261;28;20029;-60
2021/07/08 02:38:01;;;;;;;7.68;4.43;;;;;;;;;;5072322;28;20028;-59
2021/07/08 02:40:29;;;;;;;10.15;4.78;;;;;;;;;;5072289;28;20029;-60
2021/07/08 02:42:55;;;;;;;9.98;5.32;;;;;;;;;;5078073;28;20111;-61
2021/07/08 02:45:26;;;;;;;10.75;5.55;;;;;;;;;;5092226;28;20035;-60
2021/07/08 02:47:52;;;;;;;9.52;4.78;;;;;;;;;;5092244;28;20074;-60
2021/07/08 02:50:19;;;;;;;9.32;5.30;;;;;;;;;;5087742;28;20025;-60
2021/07/08 02:52:46;;;;;;;11.23;5.20;;;;;;;;;;5072072;28;20056;-60
2021/07/08 02:55:12;;;;;;;10.60;5.30;;;;;;;;;;5072045;28;20058;-60
2021/07/08 02:57:39;;;;;;;8.05;4.57;;;;;;;;;;5071903;28;20027;-60
2021/07/08 03:00:06;;;;;;;11.30;5.72;;;;;;;;;;5071996;28;20033;-60
2021/07/08 03:02:32;;;;;;;9.88;4.70;;;;;;;;;;5072010;28;20028;-60
2021/07/08 03:04:59;;;;;;;10.35;4.47;;;;;;;;;;5075063;28;20029;-60
2021/07/08 03:07:25;;;;;;;9.27;4.78;;;;;;;;;;5062672;28;20027;-61
2021/07/08 03:09:51;;;;;;;10.75;4.03;;;;;;;;;;5075789;28;20047;-61
2021/07/08 03:12:17;;;;;;;9.55;4.45;;;;;;;;;;5075513;28;20086;-60
2021/07/08 03:14:43;;;;;;;8.80;4.85;;;;;;;;;;5075666;28;20415;-60
2021/07/08 03:17:09;;;;;;;12.18;6.50;;;;;;;;;;5075377;28;20021;-60
2021/07/08 03:19:35;;;;;;;10.57;4.57;;;;;;;;;;5068041;28;20426;-61
2021/07/08 03:22:02;;;;;;;10.52;5.13;;;;;;;;;;5055273;28;20060;-60
2021/07/08 03:24:28;;;;;;;7.78;4.82;;;;;;;;;;5070095;28;20394;-59
2021/07/08 03:26:54;;;;;;;11.32;5.22;;;;;;;;;;5075128;28;20027;-60
2021/07/08 03:29:20;;;;;;;8.68;5.00;;;;;;;;;;5075059;28;20013;-61
2021/07/08 03:31:46;;;;;;;12.18;5.32;;;;;;;;;;5075249;28;20017;-60
2021/07/08 03:34:12;;;;;;;10.63;4.50;;;;;;;;;;5075524;28;20371;-60
2021/07/08 03:36:38;;;;;;;10.32;4.90;;;;;;;;;;5075271;28;20058;-60
2021/07/08 03:39:05;;;;;;;11.45;5.15;;;;;;;;;;5075021;28;20152;-60
2021/07/08 03:41:31;;;;;;;11.40;5.07;;;;;;;;;;5074834;28;20021;-60
2021/07/08 03:43:57;;;;;;;11.73;5.63;;;;;;;;;;5074756;28;20081;-60
2021/07/08 03:46:23;;;;;;;11.48;5.15;;;;;;;;;;5074924;28;20021;-60
2021/07/08 03:48:49;;;;;;;12.88;6.80;;;;;;;;;;5074861;28;20032;-60
2021/07/08 03:51:16;;;;;;;8.82;4.55;;;;;;;;;;5074902;28;20150;-61
2021/07/08 03:53:42;;;;;;;13.70;5.72;;;;;;;;;;5073633;28;20033;-60
2021/07/08 03:56:09;;;;;;;8.93;5.15;;;;;;;;;;5075079;28;20031;-61
2021/07/08 03:58:36;;;;;;;10.88;5.47;;;;;;;;;;5074659;28;20025;-60
2021/07/08 04:01:02;;;;;;;11.27;5.53;;;;;;;;;;5074667;28;20028;-60
2021/07/08 04:03:29;;;;;;;12.02;5.97;;;;;;;;;;5074568;28;20032;-60
2021/07/08 04:05:55;;;;;;;10.52;5.32;;;;;;;;;;5068960;28;20024;-60
2021/07/08 04:08:21;;;;;;;10.18;4.70;;;;;;;;;;5054567;28;20096;-60
2021/07/08 04:10:47;;;;;;;10.73;4.90;;;;;;;;;;5054656;28;20027;-61
2021/07/08 04:13:14;;;;;;;10.18;5.45;;;;;;;;;;5054405;28;20495;-60
2021/07/08 04:15:41;;;;;;;10.02;4.75;;;;;;;;;;5061054;28;20064;-60
2021/07/08 04:18:08;;;;;;;9.75;5.43;;;;;;;;;;5074310;28;20082;-60
2021/07/08 04:20:34;;;;;;;12.80;6.70;;;;;;;;;;5058774;28;20100;-60
2021/07/08 04:23:01;;;;;;;12.50;5.78;;;;;;;;;;5054132;28;20040;-60
2021/07/08 04:25:27;;;;;;;11.88;5.50;;;;;;;;;;5054059;28;20392;-60
2021/07/08 04:27:53;;;;;;;10.82;4.97;;;;;;;;;;5054068;28;20028;-60
2021/07/08 04:30:20;;;;;;;11.60;6.13;;;;;;;;;;5054429;28;20021;-60
2021/07/08 04:32:47;;;;;;;12.38;6.38;;;;;;;;;;5062216;28;20016;-60
2021/07/08 04:35:18;;;;;;;11.45;6.00;;;;;;;;;;5073936;28;20028;-60
2021/07/08 04:37:44;;;;;;;12.23;5.93;;;;;;;;;;5073949;28;20383;-60
2021/07/08 04:40:14;;;;;;;15.50;6.68;;;;;;;;;;5073838;28;20024;-60
2021/07/08 04:42:40;;;;;;;9.05;5.43;;;;;;;;;;5077761;28;20020;-60
2021/07/08 04:45:07;;;;;;;13.70;6.28;;;;;;;;;;5075756;28;20437;-60
2021/07/08 04:47:33;;;;;;;11.75;6.00;;;;;;;;;;5094042;28;20023;-60
2021/07/08 04:50:00;;;;;;;10.10;6.28;;;;;;;;;;5083746;28;20021;-61
2021/07/08 04:52:26;;;;;;;14.93;5.63;;;;;;;;;;5073661;28;20422;-60
2021/07/08 04:54:52;;;;;;;18.90;6.60;;;;;;;;;;5073463;28;20028;-60
2021/07/08 04:57:18;;;;;;;11.52;6.22;;;;;;;;;;5073543;28;20024;-60
2021/07/08 04:59:44;;;;;;;15.30;6.60;;;;;;;;;;5073501;28;20023;-61
2021/07/08 05:02:10;;;;;;;11.68;6.68;;;;;;;;;;5073468;28;20044;-61
2021/07/08 05:04:36;;;;;;;12.50;7.00;;;;;;;;;;5073388;28;20036;-60
2021/07/08 05:07:03;;;;;;;15.85;6.50;;;;;;;;;;5069046;28;20024;-61
2021/07/08 05:09:29;;;;;;;11.80;5.68;;;;;;;;;;5055284;28;20025;-61
2021/07/08 05:11:55;;;;;;;12.57;6.93;;;;;;;;;;5073299;28;20139;-60
2021/07/08 05:14:21;;;;;;;12.75;7.38;;;;;;;;;;5073215;28;20491;-61
2021/07/08 05:16:47;;;;;;;12.05;5.95;;;;;;;;;;5073093;28;20029;-61
2021/07/08 05:19:13;;;;;;;11.65;6.65;;;;;;;;;;5068603;28;20017;-60
2021/07/08 05:21:50;;;;;;;12.98;6.05;;;;;;;;;;5053039;28;20040;-60
2021/07/08 05:24:22;;;;;;;14.95;6.32;;;;;;;;;;5065360;28;20033;-60
2021/07/08 05:26:49;;;;;;;16.13;7.82;;;;;;;;;;5072218;28;20021;-60
2021/07/08 05:29:15;;;;;;;14.20;7.20;;;;;;;;;;5073179;28;20036;-61
2021/07/08 05:31:41;;;;;;;13.23;6.65;;;;;;;;;;5072827;28;20070;-60
2021/07/08 05:34:07;;;;;;;10.65;5.82;;;;;;;;;;5072799;28;20039;-61
2021/07/08 05:36:34;;;;;;;10.02;5.97;;;;;;;;;;5073047;28;20035;-60
2021/07/08 05:39:00;;;;;;;10.13;5.85;;;;;;;;;;5072723;28;20025;-60
2021/07/08 05:41:26;;;;;;;9.75;5.93;;;;;;;;;;5072850;28;20024;-60
2021/07/08 05:43:52;;;;;;;9.30;5.22;;;;;;;;;;5086871;28;20482;-60
2021/07/08 05:46:20;;;;;;;8.95;5.32;;;;;;;;;;5075032;28;20424;-60
2021/07/08 05:48:46;;;;;;;9.65;5.15;;;;;;;;;;5093294;28;20479;-60
2021/07/08 05:51:12;;;;;;;9.10;4.63;;;;;;;;;;5092890;28;20073;-60
2021/07/08 05:53:38;;;;;;;10.73;5.05;;;;;;;;;;5092768;28;20099;-63
2021/07/08 05:56:05;;;;;;;8.15;4.72;;;;;;;;;;5092692;28;20031;-60
2021/07/08 05:58:31;;;;;;;9.48;4.70;;;;;;;;;;5059998;28;20024;-60
2021/07/08 06:00:58;;;;;;;8.80;5.15;;;;;;;;;;5071744;28;20028;-60
2021/07/08 06:03:24;;;;;;;10.45;5.95;;;;;;;;;;5070446;28;20099;-60
2021/07/08 06:05:50;;;;;;;10.13;5.22;;;;;;;;;;5070437;28;20017;-60
2021/07/08 06:08:16;;;;;;;9.40;5.18;;;;;;;;;;5070312;28;20025;-60
2021/07/08 06:10:42;;;;;;;9.38;5.78;;;;;;;;;;5070466;28;20031;-60
2021/07/08 06:13:09;;;;;;;11.20;6.32;;;;;;;;;;5070386;28;20020;-61
2021/07/08 06:15:35;;;;;;;12.77;5.57;;;;;;;;;;5070766;28;20574;-60
2021/07/08 06:18:02;;;;;;;9.80;5.75;;;;;;;;;;5072034;28;20055;-60
2021/07/08 06:20:28;;;;;;;8.40;4.60;;;;;;;;;;5056766;28;20070;-60
2021/07/08 06:22:54;;;;;;;10.57;5.18;;;;;;;;;;5059190;28;20060;-61
2021/07/08 06:25:20;;;;;;;8.05;4.88;;;;;;;;;;5068449;28;20043;-61
2021/07/08 06:27:47;;;;;;;8.82;4.90;;;;;;;;;;5067766;28;20090;-61
2021/07/08 06:30:13;;;;;;;8.32;4.82;;;;;;;;;;5069987;28;20056;-61
2021/07/08 06:32:39;;;;;;;7.93;3.90;;;;;;;;;;5068116;28;20024;-61
2021/07/08 06:35:07;;;;;;;9.68;4.80;;;;;;;;;;5068993;28;20039;-60
2021/07/08 06:37:34;;;;;;;10.18;4.60;;;;;;;;;;5066970;28;20028;-60
2021/07/08 06:40:00;;;;;;;6.53;3.92;;;;;;;;;;5072646;28;20195;-61
2021/07/08 06:42:26;;;;;;;8.43;4.53;;;;;;;;;;5072644;28;20047;-60
2021/07/08 06:44:52;;;;;;;7.57;3.80;;;;;;;;;;5072942;28;20024;-60
2021/07/08 06:47:19;;;;;;;7.80;4.35;;;;;;;;;;5071338;28;20024;-60
2021/07/08 06:49:46;;;;;;;7.88;3.95;;;;;;;;;;5072495;28;20024;-59
2021/07/08 06:52:14;;;;;;;7.13;4.00;;;;;;;;;;5072463;28;20099;-60
2021/07/08 06:54:40;;;;;;;9.70;3.97;;;;;;;;;;5072738;28;20042;-60
2021/07/08 06:57:06;;;;;;;7.22;3.67;;;;;;;;;;5070986;28;20029;-60
2021/07/08 06:59:32;;;;;;;6.10;3.72;;;;;;;;;;5073102;28;20192;-60
2021/07/08 07:01:58;;;;;;;4.70;2.72;;;;;;;;;;5063059;28;20037;-61
2021/07/08 07:04:24;;;;;;;3.95;2.35;;;;;;;;;;5072236;28;20039;-61
2021/07/08 07:06:50;;;;;;;4.60;2.78;;;;;;;;;;5069268;28;20056;-62
2021/07/08 07:09:18;;;;;;;4.40;2.63;;;;;;;;;;5068383;28;20068;-61
2021/07/08 07:11:44;;;;;;;3.70;2.53;;;;;;;;;;5072360;28;20081;-61
2021/07/08 07:14:10;;;;;;;4.43;3.17;;;;;;;;;;5069325;28;20033;-61
2021/07/08 07:16:36;;;;;;;3.65;2.42;;;;;;;;;;5056702;28;20570;-61
2021/07/08 07:19:02;;;;;;;5.25;3.25;;;;;;;;;;5070032;28;20043;-61
2021/07/08 07:21:29;;;;;;;4.82;3.35;;;;;;;;;;5069514;28;20032;-61
2021/07/08 07:23:55;;;;;;;5.85;2.60;;;;;;;;;;5070776;28;20105;-61
2021/07/08 07:26:22;;;;;;;5.07;2.80;;;;;;;;;;5068542;28;20024;-61
2021/07/08 07:28:48;;;;;;;5.88;3.22;;;;;;;;;;5070774;28;20034;-61
2021/07/08 07:31:14;;;;;;;6.63;3.58;;;;;;;;;;5063664;28;20040;-61
2021/07/08 07:33:42;;;;;;;5.32;3.30;;;;;;;;;;5065430;28;20020;-61
2021/07/08 07:36:10;;;;;;;9.32;4.70;;;;;;;;;;5065725;28;20104;-62
2021/07/08 07:38:36;;;;;;;9.00;5.35;;;;;;;;;;5071893;28;20432;-64
2021/07/08 07:41:03;;;;;;;9.05;5.50;;;;;;;;;;5069751;28;20059;-62
2021/07/08 07:43:29;;;;;;;7.13;5.18;;;;;;;;;;5070492;28;20368;-61
2021/07/08 07:45:55;;;;;;;10.13;5.03;;;;;;;;;;5066147;28;20027;-62
2021/07/08 07:48:21;;;;;;;11.05;5.00;;;;;;;;;;5069016;28;20103;-61
2021/07/08 07:50:47;;;;;;;14.75;6.25;;;;;;;;;;5065764;28;20091;-61
2021/07/08 07:53:13;;;;;;;7.72;4.55;;;;;;;;;;5068943;28;20441;-61
2021/07/08 07:55:39;;;;;;;7.22;3.75;;;;;;;;;;5070152;28;20459;-62
2021/07/08 07:58:05;;;;;;;8.55;4.05;;;;;;;;;;5068349;28;20471;-60
2021/07/08 08:00:32;;;;;;;7.57;4.32;;;;;;;;;;5068974;28;20041;-61
2021/07/08 08:02:59;;;;;;;7.32;3.80;;;;;;;;;;5071287;28;20033;-61
2021/07/08 08:10:44;;;;;;;10.50;4.43;;;;;;;;;;5068660;28;20071;-61
2021/07/08 08:13:11;;;;;;;6.85;4.10;;;;;;;;;;5069763;28;20089;-60
2021/07/08 08:15:37;;;;;;;6.10;3.58;;;;;;;;;;5068184;28;20047;-60
2021/07/08 08:18:03;;;;;;;8.50;4.22;;;;;;;;;;5068165;28;20123;-61
2021/07/08 08:20:30;;;;;;;7.65;3.90;;;;;;;;;;5068723;28;20033;-60
2021/07/08 08:22:56;;;;;;;6.85;3.92;;;;;;;;;;5069084;28;20048;-61
2021/07/08 08:25:22;;;;;;;6.28;4.10;;;;;;;;;;5068967;28;20111;-61
2021/07/08 08:27:49;;;;;;;5.45;3.47;;;;;;;;;;5066582;28;20024;-61
2021/07/08 08:30:15;;;;;;;5.30;3.92;;;;;;;;;;5069488;28;20103;-60
2021/07/08 08:32:41;;;;;;;5.50;3.85;;;;;;;;;;5068917;28;20033;-62
2021/07/08 08:35:08;;;;;;;5.82;3.42;;;;;;;;;;5065725;28;20448;-62
2021/07/08 08:37:34;;;;;;;5.38;3.40;;;;;;;;;;5066872;28;20395;-61
2021/07/08 08:40:01;;;;;;;6.13;3.28;;;;;;;;;;5066021;28;20033;-62
2021/07/08 08:42:28;;;;;;;5.00;3.33;;;;;;;;;;5071872;28;20395;-62
2021/07/08 08:44:54;;;;;;;5.30;3.50;;;;;;;;;;5070548;28;20029;-62
2021/07/08 08:47:20;;;;;;;6.05;3.15;;;;;;;;;;5066909;28;20643;-62
2021/07/08 08:49:46;;;;;;;4.03;2.95;;;;;;;;;;5050344;28;20036;-62
2021/07/08 08:52:13;;;;;;;6.13;3.47;;;;;;;;;;5067912;28;20035;-62
2021/07/08 08:54:43;;;;;;;5.03;3.45;;;;;;;;;;5066674;28;20024;-62
2021/07/08 08:57:09;;;;;;;5.75;3.58;;;;;;;;;;5065250;28;20037;-62
2021/07/08 08:59:35;;;;;;;4.90;3.40;;;;;;;;;;5068600;28;20028;-62
2021/07/08 09:02:09;;;;;;;5.53;3.38;;;;;;;;;;5067228;28;20029;-62
2021/07/08 09:04:36;;;;;;;5.40;3.53;;;;;;;;;;5067068;28;20036;-62
2021/07/08 09:07:22;;;;;;;6.78;3.83;;;;;;;;;;5063446;28;20506;-62
2021/07/08 09:09:48;;;;;;;4.97;3.35;;;;;;;;;;5066241;28;20131;-62
2021/07/08 09:12:22;;;;;;;7.00;3.65;;;;;;;;;;5068190;28;20036;-62
2021/07/08 09:14:49;;;;;;;6.63;3.47;;;;;;;;;;5068645;28;20028;-62
2021/07/08 09:17:19;;;;;;;4.32;3.60;;;;;;;;;;5068474;28;20063;-62
2021/07/08 09:19:46;;;;;;;6.03;3.55;;;;;;;;;;5068741;28;20078;-62
2021/07/08 09:22:13;;;;;;;5.95;3.50;;;;;;;;;;5066724;28;20558;-62
2021/07/08 09:24:39;;;;;;;4.90;3.80;;;;;;;;;;5068085;28;20036;-62
2021/07/08 09:27:08;;;;;;;4.53;3.15;;;;;;;;;;5065896;28;20025;-62
2021/07/08 09:29:38;;;;;;;6.05;3.53;;;;;;;;;;5068072;28;20028;-62
2021/07/08 09:32:05;;;;;;;4.68;3.53;;;;;;;;;;5066320;28;20035;-62
2021/07/08 09:34:32;;;;;;;5.40;3.25;;;;;;;;;;5068016;28;20048;-61
2021/07/08 09:37:08;;;;;;;6.03;3.50;;;;;;;;;;5063682;28;20044;-62
2021/07/08 09:39:36;;;;;;;8.02;4.03;;;;;;;;;;5066982;28;20031;-62
2021/07/08 09:42:02;;;;;;;5.75;3.00;;;;;;;;;;5066941;28;20038;-62
2021/07/08 09:44:30;;;;;;;4.80;3.10;;;;;;;;;;5064250;28;20066;-62
2021/07/08 09:46:57;;;;;;;5.60;3.28;;;;;;;;;;5064300;28;20032;-62
2021/07/08 09:49:24;;;;;;;4.22;3.58;;;;;;;;;;5067689;28;20495;-62
2021/07/08 09:51:50;;;;;;;5.38;3.67;;;;;;;;;;5067033;28;20465;-62
2021/07/08 09:54:42;;;;;;;4.53;3.00;;;;;;;;;;5067653;28;20702;-62
2021/07/08 09:57:08;;;;;;;4.88;3.50;;;;;;;;;;5067584;28;20063;-62
2021/07/08 09:59:35;;;;;;;3.95;2.70;;;;;;;;;;5067914;28;20036;-62
2021/07/08 10:02:01;;;;;;;4.93;2.85;;;;;;;;;;5067588;28;21516;-63
2021/07/08 10:04:28;;;;;;;5.32;2.90;;;;;;;;;;5067975;28;20032;-62
2021/07/08 10:06:54;;;;;;;4.57;2.90;;;;;;;;;;5067894;28;20063;-62
2021/07/08 10:09:23;;;;;;;5.07;3.10;;;;;;;;;;5067648;28;20247;-63
2021/07/08 10:11:49;;;;;;;5.07;3.10;;;;;;;;;;5069931;28;20028;-62
2021/07/08 10:14:19;;;;;;;4.07;2.95;;;;;;;;;;5068251;28;20064;-62
2021/07/08 10:16:49;;;;;;;3.15;2.40;;;;;;;;;;5063433;28;20027;-62
2021/07/08 10:19:18;;;;;;;4.25;3.08;;;;;;;;;;5064903;28;20075;-62
2021/07/08 10:21:45;;;;;;;5.00;2.67;;;;;;;;;;5066578;28;20044;-62
2021/07/08 10:24:13;;;;;;;3.00;2.63;;;;;;;;;;5068200;28;20040;-66
2021/07/08 10:26:39;;;;;;;3.53;2.63;;;;;;;;;;5062524;28;20044;-62
2021/07/08 10:29:08;;;;;;;3.22;2.30;;;;;;;;;;5063730;28;20028;-62
2021/07/08 10:31:34;;;;;;;2.78;2.22;;;;;;;;;;5065581;28;20477;-61
2021/07/08 10:34:10;;;;;;;2.78;2.20;;;;;;;;;;5065068;28;20036;-61
2021/07/08 10:36:37;;;;;;;4.32;2.30;;;;;;;;;;5062585;28;20114;-63
2021/07/08 10:39:05;;;;;;;6.28;2.47;;;;;;;;;;5064358;28;20032;-62
2021/07/08 10:41:31;;;;;;;3.83;2.70;;;;;;;;;;5066192;28;20020;-62
2021/07/08 10:43:57;;;;;;;3.95;2.40;;;;;;;;;;5067350;28;20029;-62
2021/07/08 10:46:36;;;;;;;5.32;2.88;;;;;;;;;;5063415;28;20028;-61
2021/07/08 10:49:13;;;;;;;2.83;2.50;;;;;;;;;;5067848;28;20112;-62
2021/07/08 10:51:41;;;;;;;2.55;1.98;;;;;;;;;;5065619;28;20025;-63
2021/07/08 10:54:26;;;;;;;3.13;2.47;;;;;;;;;;5066916;28;20043;-62
2021/07/08 10:56:53;;;;;;;3.42;2.50;;;;;;;;;;5065563;28;20550;-62
2021/07/08 10:59:19;;;;;;;4.40;2.40;;;;;;;;;;5064465;28;20024;-62
2021/07/08 11:01:48;;;;;;;3.25;2.65;;;;;;;;;;5065135;28;20455;-63
2021/07/08 11:04:15;;;;;;;3.85;3.13;;;;;;;;;;5070001;28;20028;-61
2021/07/08 11:06:43;;;;;;;5.20;3.25;;;;;;;;;;5059836;28;20123;-62
2021/07/08 11:09:18;;;;;;;7.30;3.70;;;;;;;;;;5045005;28;20021;-65
2021/07/08 11:11:50;;;;;;;3.35;2.60;;;;;;;;;;5068540;28;20415;-64
2021/07/08 11:14:18;;;;;;;6.05;3.15;;;;;;;;;;5067802;28;20028;-62
2021/07/08 11:16:46;;;;;;;6.75;3.75;;;;;;;;;;5064892;28;20028;-63
2021/07/08 11:19:12;;;;;;;5.47;3.47;;;;;;;;;;5066340;28;20050;-62
2021/07/08 11:21:51;;;;;;;2.72;2.35;;;;;;;;;;5064577;28;20406;-64
2021/07/08 11:24:17;;;;;;;3.45;2.72;;;;;;;;;;5064275;28;20127;-62
2021/07/08 11:26:58;;;;;;;8.55;4.03;;;;;;;;;;5069592;28;20036;-62
2021/07/08 11:29:35;;;;;;;4.25;2.60;;;;;;;;;;5070651;28;20093;-61
2021/07/08 11:32:02;;;;;;;3.88;2.55;;;;;;;;;;5067768;28;20025;-62
2021/07/08 11:34:28;;;;;;;4.93;2.58;;;;;;;;;;5052477;28;20020;-62
2021/07/08 11:36:57;;;;;;;7.10;3.75;;;;;;;;;;5070482;28;20070;-62
2021/07/08 11:39:26;;;;;;;3.03;2.50;;;;;;;;;;5068962;28;20065;-63
2021/07/08 11:41:55;;;;;;;3.40;2.30;;;;;;;;;;5070124;28;20032;-61
2021/07/08 11:44:30;;;;;;;2.78;2.35;;;;;;;;;;5071255;28;20082;-62
2021/07/08 11:46:57;;;;;;;3.58;2.90;;;;;;;;;;5065194;28;20085;-61
2021/07/08 11:49:24;;;;;;;3.38;2.72;;;;;;;;;;5070268;28;20020;-61
2021/07/08 11:51:50;;;;;;;3.22;2.55;;;;;;;;;;5068850;28;20708;-64
2021/07/08 11:54:16;;;;;;;5.70;3.33;;;;;;;;;;5068490;28;20040;-62
2021/07/08 11:56:42;;;;;;;5.32;3.60;;;;;;;;;;5070254;28;20024;-61
2021/07/08 11:59:09;;;;;;;4.63;3.10;;;;;;;;;;5064321;28;20040;-63
2021/07/08 12:01:39;;;;;;;4.20;2.88;;;;;;;;;;5069120;28;20036;-61
2021/07/08 12:04:05;;;;;;;4.95;3.25;;;;;;;;;;5069840;28;20035;-61
2021/07/08 12:06:31;;;;;;;3.53;2.72;;;;;;;;;;5067246;28;20033;-62
2021/07/08 12:09:01;;;;;;;4.30;3.47;;;;;;;;;;5070178;28;20028;-62
2021/07/08 12:11:33;;;;;;;4.20;3.40;;;;;;;;;;5070488;28;20037;-61
2021/07/08 12:14:12;;;;;;;4.65;3.42;;;;;;;;;;5070508;28;20399;-62
2021/07/08 12:16:46;;;;;;;3.97;2.78;;;;;;;;;;5068618;28;20043;-61
2021/07/08 12:19:15;;;;;;;4.65;2.97;;;;;;;;;;5066136;28;20034;-62
2021/07/08 12:21:43;;;;;;;4.72;2.85;;;;;;;;;;5049468;28;20453;-61
2021/07/08 12:24:24;;;;;;;3.30;2.80;;;;;;;;;;5069598;28;20040;-62
2021/07/08 12:26:52;;;;;;;3.83;2.42;;;;;;;;;;5090265;28;20390;-62
2021/07/08 12:29:25;;;;;;;4.10;2.90;;;;;;;;;;5076949;28;20070;-62
2021/07/08 12:32:01;;;;;;;3.90;2.90;;;;;;;;;;5069620;28;20035;-61
2021/07/08 12:34:35;;;;;;;3.70;2.67;;;;;;;;;;5070485;28;20106;-62
2021/07/08 12:37:14;;;;;;;3.55;2.80;;;;;;;;;;5070303;28;20032;-62
2021/07/08 12:39:40;;;;;;;3.75;2.72;;;;;;;;;;5070831;28;20124;-61
2021/07/08 12:42:14;;;;;;;3.53;2.58;;;;;;;;;;5071096;28;20040;-64
2021/07/08 12:44:40;;;;;;;3.38;2.13;;;;;;;;;;5070576;28;20032;-62
2021/07/08 12:47:07;;;;;;;4.25;2.60;;;;;;;;;;5070396;28;20032;-62
2021/07/08 12:49:33;;;;;;;3.92;2.80;;;;;;;;;;5070698;28;20505;-62
2021/07/08 12:51:59;;;;;;;2.92;2.20;;;;;;;;;;5070438;28;20025;-63
2021/07/08 12:54:28;;;;;;;4.03;3.03;;;;;;;;;;5063425;28;20036;-62
2021/07/08 12:57:04;;;;;;;5.25;2.88;;;;;;;;;;5064549;28;20116;-61
2021/07/08 12:59:30;;;;;;;4.07;2.45;;;;;;;;;;5064892;28;20032;-62
2021/07/08 13:01:57;;;;;;;3.47;2.55;;;;;;;;;;5069005;28;20770;-61
2021/07/08 13:04:32;;;;;;;4.43;2.40;;;;;;;;;;5056914;28;20469;-62
2021/07/08 13:07:00;;;;;;;4.43;3.03;;;;;;;;;;5065688;28;20095;-61
2021/07/08 13:09:26;;;;;;;4.65;2.67;;;;;;;;;;5066478;28;20052;-61
2021/07/08 13:11:53;;;;;;;9.88;2.90;;;;;;;;;;5069534;28;20391;-61
2021/07/08 13:14:23;;;;;;;3.45;2.47;;;;;;;;;;5051410;28;20449;-63
2021/07/08 13:17:02;;;;;;;4.05;3.40;;;;;;;;;;5064277;28;20032;-61
2021/07/08 13:19:28;;;;;;;4.25;3.17;;;;;;;;;;5065118;28;20111;-61
2021/07/08 13:21:54;;;;;;;4.93;2.92;;;;;;;;;;5049216;28;20048;-62
2021/07/08 13:24:24;;;;;;;5.57;2.60;;;;;;;;;;5068430;28;20119;-61
2021/07/08 13:26:50;;;;;;;2.97;2.60;;;;;;;;;;5070144;28;20028;-62
2021/07/08 13:29:23;;;;;;;3.65;2.72;;;;;;;;;;5066265;28;20037;-61
2021/07/08 13:31:49;;;;;;;3.80;2.78;;;;;;;;;;5067504;28;20060;-62
2021/07/08 13:34:22;;;;;;;3.72;3.13;;;;;;;;;;5067498;28;20029;-61
2021/07/08 13:36:48;;;;;;;3.50;2.95;;;;;;;;;;5068489;28;20037;-62
2021/07/08 13:39:14;;;;;;;3.92;2.92;;;;;;;;;;5066357;28;20039;-61
2021/07/08 13:41:44;;;;;;;3.40;2.97;;;;;;;;;;5067304;28;20036;-61
2021/07/08 13:44:11;;;;;;;7.35;3.35;;;;;;;;;;5068064;28;20039;-63
2021/07/08 13:46:41;;;;;;;3.38;3.00;;;;;;;;;;5066318;28;20091;-61
2021/07/08 13:49:12;;;;;;;4.18;2.85;;;;;;;;;;5064681;28;20029;-62
2021/07/08 13:51:43;;;;;;;7.32;3.55;;;;;;;;;;5066707;28;20574;-62
2021/07/08 13:54:09;;;;;;;4.43;3.28;;;;;;;;;;5064041;28;20119;-62
2021/07/08 13:56:35;;;;;;;3.78;2.78;;;;;;;;;;5067116;28;20028;-62
2021/07/08 13:59:03;;;;;;;4.78;3.10;;;;;;;;;;5062657;28;20449;-62
2021/07/08 14:01:29;;;;;;;3.42;2.80;;;;;;;;;;5066748;28;20024;-62
2021/07/08 14:03:56;;;;;;;3.60;2.95;;;;;;;;;;5065842;28;20024;-62
2021/07/08 14:06:22;;;;;;;5.90;2.80;;;;;;;;;;5066913;28;20034;-63
2021/07/08 14:08:48;;;;;;;4.00;3.45;;;;;;;;;;5046726;28;20150;-62
2021/07/08 14:11:15;;;;;;;5.18;3.20;;;;;;;;;;5067561;28;20032;-61
2021/07/08 14:13:41;;;;;;;4.78;3.10;;;;;;;;;;5067065;28;20651;-62
2021/07/08 14:16:08;;;;;;;5.60;3.13;;;;;;;;;;5067018;28;20028;-61
2021/07/08 14:18:35;;;;;;;3.47;2.60;;;;;;;;;;5066598;28;20032;-61
2021/07/08 14:21:01;;;;;;;5.47;2.75;;;;;;;;;;5066520;28;20055;-62
2021/07/08 14:23:28;;;;;;;3.00;2.70;;;;;;;;;;5067530;28;20056;-62
2021/07/08 14:25:54;;;;;;;3.50;2.97;;;;;;;;;;5067065;28;20116;-62
2021/07/08 14:28:20;;;;;;;3.78;2.75;;;;;;;;;;5046148;28;20121;-61
2021/07/08 14:30:47;;;;;;;5.13;3.50;;;;;;;;;;5062023;28;20383;-60
2021/07/08 14:33:13;;;;;;;4.45;2.65;;;;;;;;;;5067458;28;20111;-62
2021/07/08 14:35:39;;;;;;;3.75;3.10;;;;;;;;;;5066682;28;20053;-62
2021/07/08 14:38:06;;;;;;;4.35;2.67;;;;;;;;;;5065513;28;20094;-61
2021/07/08 14:40:35;;;;;;;5.00;3.00;;;;;;;;;;5066997;28;20063;-62
2021/07/08 14:43:21;;;;;;;4.60;2.90;;;;;;;;;;5067354;28;20039;-61
2021/07/08 14:45:47;;;;;;;3.17;2.78;;;;;;;;;;5067132;28;20038;-62
2021/07/08 14:48:15;;;;;;;3.47;2.90;;;;;;;;;;5064979;28;20025;-62